Terminal Aerodrome Forecast
Issued by NWS

Home | Current Version | Previous Version | Text Only | Print | Product List | Glossary On
Versions: 1 2 3 4 5 6 7 8 9 10 11 12 13 14 15 16 17 18 19 20 21 22 23 24 25 26 27 28 29 30 31 32 33 34
000
FTUS43 KLOT 240538 CCA
TAFORD
TAF COR
KORD 240538Z 2406/2512 18005KT P6SM FEW150 BKN250
     FM241400 16010KT P6SM VCSH SCT040 BKN080
     FM241900 15011G17KT P6SM SCT040 BKN080
     FM250000 18013G20KT P6SM -SHRA BKN040 OVC080 PROB30 2500/2506
      -TSRA BKN040CB
     FM250600 19013G20KT P6SM -SHRA VCTS BKN040CB OVC080=

USA.gov is the U.S. government's official web portal to all federal, state and local government web resources and services.